sensor_id;sensor_type;location;lat;lon;timestamp;pressure;altitude;pressure_sealevel;temperature
71640;BMP280;60912;48.968;10.124;2023-03-01T00:00:24;97318.22;;;-0.08
71640;BMP280;60912;48.968;10.124;2023-03-01T00:02:50;97314.59;;;-0.05
71640;BMP280;60912;48.968;10.124;2023-03-01T00:05:18;97320.78;;;0.05
71640;BMP280;60912;48.968;10.124;2023-03-01T00:07:44;97320.19;;;0.00
71640;BMP280;60912;48.968;10.124;2023-03-01T00:10:10;97323.91;;;-0.15
71640;BMP280;60912;48.968;10.124;2023-03-01T00:13:11;97321.75;;;-0.29
71640;BMP280;60912;48.968;10.124;2023-03-01T00:15:40;97325.75;;;-0.43
71640;BMP280;60912;48.968;10.124;2023-03-01T00:18:07;97326.00;;;-0.50
71640;BMP280;60912;48.968;10.124;2023-03-01T00:20:33;97332.94;;;-0.49
71640;BMP280;60912;48.968;10.124;2023-03-01T00:22:59;97325.75;;;-0.43
71640;BMP280;60912;48.968;10.124;2023-03-01T00:25:25;97320.78;;;-0.36
71640;BMP280;60912;48.968;10.124;2023-03-01T00:27:53;97324.69;;;-0.37
71640;BMP280;60912;48.968;10.124;2023-03-01T00:30:27;97321.03;;;-0.21
71640;BMP280;60912;48.968;10.124;2023-03-01T00:32:52;97314.91;;;-0.03
71640;BMP280;60912;48.968;10.124;2023-03-01T00:35:28;97322.94;;;0.10
71640;BMP280;60912;48.968;10.124;2023-03-01T00:38:00;97318.72;;;0.09
71640;BMP280;60912;48.968;10.124;2023-03-01T00:40:27;97319.16;;;0.07
71640;BMP280;60912;48.968;10.124;2023-03-01T00:43:02;97314.19;;;0.06
71640;BMP280;60912;48.968;10.124;2023-03-01T00:45:38;97323.38;;;0.08
71640;BMP280;60912;48.968;10.124;2023-03-01T00:48:04;97327.16;;;0.20
71640;BMP280;60912;48.968;10.124;2023-03-01T00:50:42;97327.59;;;0.36
71640;BMP280;60912;48.968;10.124;2023-03-01T00:53:07;97327.16;;;0.56
71640;BMP280;60912;48.968;10.124;2023-03-01T00:55:33;97329.56;;;0.63
71640;BMP280;60912;48.968;10.124;2023-03-01T00:57:58;97334.09;;;0.66
71640;BMP280;60912;48.968;10.124;2023-03-01T01:01:06;97330.31;;;0.73
71640;BMP280;60912;48.968;10.124;2023-03-01T01:03:21;97325.03;;;0.69
71640;BMP280;60912;48.968;10.124;2023-03-01T01:05:47;97326.56;;;0.70
71640;BMP280;60912;48.968;10.124;2023-03-01T01:08:12;97327.44;;;0.67
71640;BMP280;60912;48.968;10.124;2023-03-01T01:10:46;97321.13;;;0.61
71640;BMP280;60912;48.968;10.124;2023-03-01T01:13:12;97310.28;;;0.61
71640;BMP280;60912;48.968;10.124;2023-03-01T01:15:44;97316.63;;;0.58
71640;BMP280;60912;48.968;10.124;2023-03-01T01:18:10;97306.06;;;0.60
71640;BMP280;60912;48.968;10.124;2023-03-01T01:20:43;97304.53;;;0.41
71640;BMP280;60912;48.968;10.124;2023-03-01T01:23:08;97303.19;;;0.46
71640;BMP280;60912;48.968;10.124;2023-03-01T01:28:26;97291.44;;;0.58
71640;BMP280;60912;48.968;10.124;2023-03-01T01:31:14;97287.66;;;0.64
71640;BMP280;60912;48.968;10.124;2023-03-01T01:34:12;97288.00;;;0.48
71640;BMP280;60912;48.968;10.124;2023-03-01T01:39:40;97279.56;;;0.28
71640;BMP280;60912;48.968;10.124;2023-03-01T01:42:18;97279.88;;;0.21
71640;BMP280;60912;48.968;10.124;2023-03-01T01:48:27;97273.69;;;0.11
71640;BMP280;60912;48.968;10.124;2023-03-01T01:58:01;97270.84;;;0.24
71640;BMP280;60912;48.968;10.124;2023-03-01T02:01:04;97250.38;;;0.23
71640;BMP280;60912;48.968;10.124;2023-03-01T02:03:46;97253.47;;;0.40
71640;BMP280;60912;48.968;10.124;2023-03-01T02:06:39;97249.88;;;0.33
71640;BMP280;60912;48.968;10.124;2023-03-01T02:09:48;97252.59;;;0.43
71640;BMP280;60912;48.968;10.124;2023-03-01T02:12:24;97247.00;;;0.55
71640;BMP280;60912;48.968;10.124;2023-03-01T02:15:19;97231.34;;;0.59
71640;BMP280;60912;48.968;10.124;2023-03-01T02:17:48;97231.03;;;0.39
71640;BMP280;60912;48.968;10.124;2023-03-01T02:23:10;97232.38;;;0.53
71640;BMP280;60912;48.968;10.124;2023-03-01T02:31:23;97221.66;;;0.67
71640;BMP280;60912;48.968;10.124;2023-03-01T02:34:19;97218.53;;;0.60
71640;BMP280;60912;48.968;10.124;2023-03-01T02:49:35;97208.31;;;0.46
71640;BMP280;60912;48.968;10.124;2023-03-01T02:58:21;97204.19;;;0.68
71640;BMP280;60912;48.968;10.124;2023-03-01T03:00:53;97204.59;;;0.76
71640;BMP280;60912;48.968;10.124;2023-03-01T03:04:18;97197.38;;;0.82
71640;BMP280;60912;48.968;10.124;2023-03-01T03:07:07;97188.31;;;0.76
71640;BMP280;60912;48.968;10.124;2023-03-01T03:10:02;97193.03;;;0.66
71640;BMP280;60912;48.968;10.124;2023-03-01T03:13:07;97188.66;;;0.69
71640;BMP280;60912;48.968;10.124;2023-03-01T03:15:46;97187.00;;;0.71
71640;BMP280;60912;48.968;10.124;2023-03-01T03:18:41;97184.00;;;0.69
71640;BMP280;60912;48.968;10.124;2023-03-01T03:25:30;97173.47;;;0.62
71640;BMP280;60912;48.968;10.124;2023-03-01T03:30:47;97172.09;;;0.67
71640;BMP280;60912;48.968;10.124;2023-03-01T03:33:36;97169.81;;;0.75
71640;BMP280;60912;48.968;10.124;2023-03-01T03:39:07;97177.97;;;0.65
71640;BMP280;60912;48.968;10.124;2023-03-01T03:41:37;97182.44;;;0.78
71640;BMP280;60912;48.968;10.124;2023-03-01T03:48:01;97167.09;;;0.75
71640;BMP280;60912;48.968;10.124;2023-03-01T03:51:13;97156.38;;;0.80
71640;BMP280;60912;48.968;10.124;2023-03-01T03:53:58;97158.28;;;0.89
71640;BMP280;60912;48.968;10.124;2023-03-01T03:56:32;97150.19;;;0.80
71640;BMP280;60912;48.968;10.124;2023-03-01T03:59:07;97150.34;;;0.76
71640;BMP280;60912;48.968;10.124;2023-03-01T04:01:35;97150.69;;;0.69
71640;BMP280;60912;48.968;10.124;2023-03-01T04:04:08;97145.84;;;0.73
71640;BMP280;60912;48.968;10.124;2023-03-01T04:07:03;97142.09;;;0.70
71640;BMP280;60912;48.968;10.124;2023-03-01T04:09:51;97146.41;;;0.86
71640;BMP280;60912;48.968;10.124;2023-03-01T04:12:23;97138.47;;;0.73
71640;BMP280;60912;48.968;10.124;2023-03-01T04:15:11;97145.06;;;0.82
71640;BMP280;60912;48.968;10.124;2023-03-01T04:17:51;97146.56;;;0.83
71640;BMP280;60912;48.968;10.124;2023-03-01T04:23:51;97142.00;;;0.56
71640;BMP280;60912;48.968;10.124;2023-03-01T04:29:20;97147.28;;;0.41
71640;BMP280;60912;48.968;10.124;2023-03-01T04:31:53;97150.44;;;0.40
71640;BMP280;60912;48.968;10.124;2023-03-01T04:34:33;97145.34;;;0.32
71640;BMP280;60912;48.968;10.124;2023-03-01T04:40:30;97153.31;;;0.45
71640;BMP280;60912;48.968;10.124;2023-03-01T04:43:51;97151.06;;;0.44
71640;BMP280;60912;48.968;10.124;2023-03-01T04:50:12;97153.28;;;0.54
71640;BMP280;60912;48.968;10.124;2023-03-01T04:52:55;97149.06;;;0.53
71640;BMP280;60912;48.968;10.124;2023-03-01T04:58:55;97143.59;;;0.20
71640;BMP280;60912;48.968;10.124;2023-03-01T05:01:46;97153.69;;;0.20
71640;BMP280;60912;48.968;10.124;2023-03-01T05:04:47;97151.00;;;0.11
71640;BMP280;60912;48.968;10.124;2023-03-01T05:07:15;97152.34;;;0.06
71640;BMP280;60912;48.968;10.124;2023-03-01T05:09:59;97156.72;;;0.04
71640;BMP280;60912;48.968;10.124;2023-03-01T05:12:24;97161.53;;;0.09
71640;BMP280;60912;48.968;10.124;2023-03-01T05:14:53;97145.56;;;-0.08
71640;BMP280;60912;48.968;10.124;2023-03-01T05:17:21;97152.50;;;-0.07
71640;BMP280;60912;48.968;10.124;2023-03-01T05:19:55;97150.09;;;-0.23
71640;BMP280;60912;48.968;10.124;2023-03-01T05:22:26;97147.38;;;-0.32
71640;BMP280;60912;48.968;10.124;2023-03-01T05:24:53;97155.66;;;-0.26
71640;BMP280;60912;48.968;10.124;2023-03-01T05:27:19;97153.41;;;-0.28
71640;BMP280;60912;48.968;10.124;2023-03-01T05:29:50;97146.78;;;-0.18
71640;BMP280;60912;48.968;10.124;2023-03-01T05:32:15;97141.19;;;-0.23
71640;BMP280;60912;48.968;10.124;2023-03-01T05:34:46;97147.81;;;-0.33
71640;BMP280;60912;48.968;10.124;2023-03-01T05:37:12;97154.41;;;-0.44
71640;BMP280;60912;48.968;10.124;2023-03-01T05:45:32;97143.25;;;-0.64
71640;BMP280;60912;48.968;10.124;2023-03-01T05:55:04;97147.00;;;-0.61
71640;BMP280;60912;48.968;10.124;2023-03-01T05:57:51;97135.88;;;-0.73
71640;BMP280;60912;48.968;10.124;2023-03-01T06:00:41;97130.63;;;-0.76
71640;BMP280;60912;48.968;10.124;2023-03-01T06:04:00;97143.84;;;-0.69
71640;BMP280;60912;48.968;10.124;2023-03-01T06:07:04;97129.25;;;-0.72
71640;BMP280;60912;48.968;10.124;2023-03-01T06:13:05;97137.88;;;-0.46
71640;BMP280;60912;48.968;10.124;2023-03-01T06:16:13;97134.22;;;-0.70
71640;BMP280;60912;48.968;10.124;2023-03-01T06:19:09;97137.06;;;-0.74
71640;BMP280;60912;48.968;10.124;2023-03-01T06:21:42;97131.81;;;-0.59
71640;BMP280;60912;48.968;10.124;2023-03-01T06:24:07;97148.38;;;-0.48
71640;BMP280;60912;48.968;10.124;2023-03-01T06:26:55;97143.72;;;-0.56
71640;BMP280;60912;48.968;10.124;2023-03-01T06:29:36;97153.34;;;-0.46
71640;BMP280;60912;48.968;10.124;2023-03-01T06:32:18;97148.56;;;-0.24
71640;BMP280;60912;48.968;10.124;2023-03-01T06:34:54;97140.88;;;0.29
71640;BMP280;60912;48.968;10.124;2023-03-01T06:40:43;97137.97;;;2.68
71640;BMP280;60912;48.968;10.124;2023-03-01T06:43:17;97136.69;;;4.31
71640;BMP280;60912;48.968;10.124;2023-03-01T06:46:18;97135.69;;;5.56
71640;BMP280;60912;48.968;10.124;2023-03-01T06:49:07;97124.00;;;6.89
71640;BMP280;60912;48.968;10.124;2023-03-01T06:51:56;97140.69;;;8.25
71640;BMP280;60912;48.968;10.124;2023-03-01T06:55:39;97143.34;;;8.36
71640;BMP280;60912;48.968;10.124;2023-03-01T07:01:43;97142.00;;;8.73
71640;BMP280;60912;48.968;10.124;2023-03-01T07:04:10;97138.44;;;9.96
71640;BMP280;60912;48.968;10.124;2023-03-01T07:06:44;97130.91;;;10.68
71640;BMP280;60912;48.968;10.124;2023-03-01T07:09:19;97136.03;;;9.55
71640;BMP280;60912;48.968;10.124;2023-03-01T07:11:55;97141.66;;;8.82
71640;BMP280;60912;48.968;10.124;2023-03-01T07:14:24;97130.06;;;9.51
71640;BMP280;60912;48.968;10.124;2023-03-01T07:17:09;97131.69;;;8.55
71640;BMP280;60912;48.968;10.124;2023-03-01T07:19:56;97133.22;;;8.74
71640;BMP280;60912;48.968;10.124;2023-03-01T07:22:22;97127.63;;;7.72
71640;BMP280;60912;48.968;10.124;2023-03-01T07:24:48;97121.63;;;8.38
71640;BMP280;60912;48.968;10.124;2023-03-01T07:27:13;97134.44;;;8.30
71640;BMP280;60912;48.968;10.124;2023-03-01T07:29:41;97128.97;;;7.95
71640;BMP280;60912;48.968;10.124;2023-03-01T07:32:15;97129.81;;;7.32
71640;BMP280;60912;48.968;10.124;2023-03-01T07:34:41;97124.25;;;6.85
71640;BMP280;60912;48.968;10.124;2023-03-01T07:37:06;97125.56;;;6.18
71640;BMP280;60912;48.968;10.124;2023-03-01T07:39:42;97115.56;;;5.70
71640;BMP280;60912;48.968;10.124;2023-03-01T07:42:08;97120.50;;;4.90
71640;BMP280;60912;48.968;10.124;2023-03-01T07:44:36;97127.06;;;4.67
71640;BMP280;60912;48.968;10.124;2023-03-01T07:47:07;97114.94;;;4.36
71640;BMP280;60912;48.968;10.124;2023-03-01T07:52:59;97109.31;;;4.20
71640;BMP280;60912;48.968;10.124;2023-03-01T07:55:27;97108.81;;;4.21
71640;BMP280;60912;48.968;10.124;2023-03-01T07:57:53;97109.78;;;4.13
71640;BMP280;60912;48.968;10.124;2023-03-01T08:00:42;97101.22;;;3.99
71640;BMP280;60912;48.968;10.124;2023-03-01T08:03:07;97105.00;;;4.39
71640;BMP280;60912;48.968;10.124;2023-03-01T08:06:03;97093.28;;;3.76
71640;BMP280;60912;48.968;10.124;2023-03-01T08:08:32;97109.16;;;3.51
71640;BMP280;60912;48.968;10.124;2023-03-01T08:10:59;97108.81;;;3.44
71640;BMP280;60912;48.968;10.124;2023-03-01T08:13:25;97091.16;;;3.59
71640;BMP280;60912;48.968;10.124;2023-03-01T08:15:51;97103.88;;;3.94
71640;BMP280;60912;48.968;10.124;2023-03-01T08:18:21;97101.00;;;4.03
71640;BMP280;60912;48.968;10.124;2023-03-01T08:20:49;97089.81;;;4.01
71640;BMP280;60912;48.968;10.124;2023-03-01T08:23:14;97097.38;;;3.86
71640;BMP280;60912;48.968;10.124;2023-03-01T08:26:04;97087.31;;;3.71
71640;BMP280;60912;48.968;10.124;2023-03-01T08:28:55;97089.88;;;3.81
71640;BMP280;60912;48.968;10.124;2023-03-01T08:31:51;97093.78;;;3.28
71640;BMP280;60912;48.968;10.124;2023-03-01T08:34:35;97082.06;;;3.02
71640;BMP280;60912;48.968;10.124;2023-03-01T08:37:11;97085.44;;;2.96
71640;BMP280;60912;48.968;10.124;2023-03-01T08:39:50;97090.09;;;3.11
71640;BMP280;60912;48.968;10.124;2023-03-01T08:42:15;97094.72;;;3.25
71640;BMP280;60912;48.968;10.124;2023-03-01T08:44:43;97091.03;;;3.48
71640;BMP280;60912;48.968;10.124;2023-03-01T08:47:09;97078.50;;;3.82
71640;BMP280;60912;48.968;10.124;2023-03-01T08:49:39;97083.53;;;3.95
71640;BMP280;60912;48.968;10.124;2023-03-01T08:52:14;97082.59;;;3.46
71640;BMP280;60912;48.968;10.124;2023-03-01T08:54:39;97087.72;;;3.39
71640;BMP280;60912;48.968;10.124;2023-03-01T08:57:05;97077.00;;;3.35
71640;BMP280;60912;48.968;10.124;2023-03-01T08:59:30;97079.47;;;3.79
71640;BMP280;60912;48.968;10.124;2023-03-01T09:02:13;97065.66;;;4.20
71640;BMP280;60912;48.968;10.124;2023-03-01T09:04:42;97074.03;;;4.42
71640;BMP280;60912;48.968;10.124;2023-03-01T09:07:16;97068.53;;;4.36
71640;BMP280;60912;48.968;10.124;2023-03-01T09:10:05;97079.19;;;4.03
71640;BMP280;60912;48.968;10.124;2023-03-01T09:12:30;97072.34;;;4.19
71640;BMP280;60912;48.968;10.124;2023-03-01T09:15:05;97061.13;;;4.42
71640;BMP280;60912;48.968;10.124;2023-03-01T09:22:47;97055.75;;;4.54
71640;BMP280;60912;48.968;10.124;2023-03-01T09:27:51;97041.94;;;4.31
71640;BMP280;60912;48.968;10.124;2023-03-01T09:30:17;97037.28;;;4.06
71640;BMP280;60912;48.968;10.124;2023-03-01T09:32:45;97037.34;;;4.48
71640;BMP280;60912;48.968;10.124;2023-03-01T09:35:11;97037.47;;;4.71
71640;BMP280;60912;48.968;10.124;2023-03-01T09:37:45;97023.72;;;5.02
71640;BMP280;60912;48.968;10.124;2023-03-01T09:40:17;97030.69;;;5.03
71640;BMP280;60912;48.968;10.124;2023-03-01T09:43:06;97018.03;;;4.52
71640;BMP280;60912;48.968;10.124;2023-03-01T09:45:43;97019.91;;;4.83
71640;BMP280;60912;48.968;10.124;2023-03-01T09:51:18;97015.59;;;5.58
71640;BMP280;60912;48.968;10.124;2023-03-01T09:53:57;97019.59;;;5.40
71640;BMP280;60912;48.968;10.124;2023-03-01T10:02:57;97008.69;;;6.01
71640;BMP280;60912;48.968;10.124;2023-03-01T10:11:03;97001.22;;;5.91
71640;BMP280;60912;48.968;10.124;2023-03-01T10:19:03;97014.88;;;6.19
71640;BMP280;60912;48.968;10.124;2023-03-01T10:21:36;96993.53;;;5.67
71640;BMP280;60912;48.968;10.124;2023-03-01T10:24:17;96997.22;;;5.58
71640;BMP280;60912;48.968;10.124;2023-03-01T10:32:13;96991.78;;;5.86
71640;BMP280;60912;48.968;10.124;2023-03-01T10:34:39;96995.75;;;5.85
71640;BMP280;60912;48.968;10.124;2023-03-01T10:37:26;96999.22;;;5.63
71640;BMP280;60912;48.968;10.124;2023-03-01T10:40:34;96990.53;;;5.87
71640;BMP280;60912;48.968;10.124;2023-03-01T10:43:32;96975.75;;;6.40
71640;BMP280;60912;48.968;10.124;2023-03-01T10:56:58;96962.91;;;6.13
71640;BMP280;60912;48.968;10.124;2023-03-01T10:59:34;96964.34;;;6.25
71640;BMP280;60912;48.968;10.124;2023-03-01T11:02:33;96947.41;;;6.32
71640;BMP280;60912;48.968;10.124;2023-03-01T11:05:22;96948.78;;;6.61
71640;BMP280;60912;48.968;10.124;2023-03-01T11:08:00;96945.25;;;6.72
71640;BMP280;60912;48.968;10.124;2023-03-01T11:10:47;96955.63;;;6.21
71640;BMP280;60912;48.968;10.124;2023-03-01T11:14:13;96942.84;;;6.46
71640;BMP280;60912;48.968;10.124;2023-03-01T11:19:35;96928.34;;;5.99
71640;BMP280;60912;48.968;10.124;2023-03-01T11:22:32;96919.34;;;6.10
71640;BMP280;60912;48.968;10.124;2023-03-01T11:25:00;96917.78;;;6.42
71640;BMP280;60912;48.968;10.124;2023-03-01T11:27:41;96913.19;;;6.67
71640;BMP280;60912;48.968;10.124;2023-03-01T11:36:35;96930.44;;;6.45
71640;BMP280;60912;48.968;10.124;2023-03-01T11:42:24;96906.47;;;6.62
71640;BMP280;60912;48.968;10.124;2023-03-01T11:48:48;96899.38;;;6.37
71640;BMP280;60912;48.968;10.124;2023-03-01T12:09:19;96873.00;;;7.16
71640;BMP280;60912;48.968;10.124;2023-03-01T12:11:57;96881.16;;;6.92
71640;BMP280;60912;48.968;10.124;2023-03-01T12:54:41;96793.16;;;7.74
71640;BMP280;60912;48.968;10.124;2023-03-01T13:42:28;96773.31;;;8.05
71640;BMP280;60912;48.968;10.124;2023-03-01T13:48:34;96763.91;;;8.19
71640;BMP280;60912;48.968;10.124;2023-03-01T13:54:57;96754.34;;;8.07
71640;BMP280;60912;48.968;10.124;2023-03-01T13:58:04;96748.69;;;8.18
71640;BMP280;60912;48.968;10.124;2023-03-01T14:04:38;96765.13;;;8.37
71640;BMP280;60912;48.968;10.124;2023-03-01T14:11:37;96758.63;;;8.02
71640;BMP280;60912;48.968;10.124;2023-03-01T14:17:45;96771.66;;;8.15
71640;BMP280;60912;48.968;10.124;2023-03-01T14:23:43;96770.47;;;8.10
71640;BMP280;60912;48.968;10.124;2023-03-01T14:26:09;96762.47;;;8.31
71640;BMP280;60912;48.968;10.124;2023-03-01T14:28:49;96770.19;;;8.33
71640;BMP280;60912;48.968;10.124;2023-03-01T14:31:47;96769.75;;;8.29
71640;BMP280;60912;48.968;10.124;2023-03-01T14:34:35;96769.38;;;8.19
71640;BMP280;60912;48.968;10.124;2023-03-01T14:41:37;96774.41;;;8.15
71640;BMP280;60912;48.968;10.124;2023-03-01T14:48:04;96781.75;;;8.26
71640;BMP280;60912;48.968;10.124;2023-03-01T14:51:05;96783.75;;;8.25
71640;BMP280;60912;48.968;10.124;2023-03-01T14:57:33;96773.94;;;8.11
71640;BMP280;60912;48.968;10.124;2023-03-01T15:02:47;96764.38;;;7.99
71640;BMP280;60912;48.968;10.124;2023-03-01T15:05:36;96761.88;;;8.01
71640;BMP280;60912;48.968;10.124;2023-03-01T15:12:40;96764.84;;;8.03
71640;BMP280;60912;48.968;10.124;2023-03-01T15:16:11;96757.72;;;8.13
71640;BMP280;60912;48.968;10.124;2023-03-01T15:21:49;96769.59;;;8.02
71640;BMP280;60912;48.968;10.124;2023-03-01T15:24:26;96775.34;;;7.99
71640;BMP280;60912;48.968;10.124;2023-03-01T15:27:21;96762.84;;;7.85
71640;BMP280;60912;48.968;10.124;2023-03-01T15:39:59;96752.84;;;8.06
71640;BMP280;60912;48.968;10.124;2023-03-01T15:46:38;96739.44;;;7.84
71640;BMP280;60912;48.968;10.124;2023-03-01T15:52:52;96741.44;;;7.83
71640;BMP280;60912;48.968;10.124;2023-03-01T15:55:44;96748.06;;;7.88
71640;BMP280;60912;48.968;10.124;2023-03-01T16:04:51;96731.31;;;7.91
71640;BMP280;60912;48.968;10.124;2023-03-01T16:07:26;96731.03;;;7.95
71640;BMP280;60912;48.968;10.124;2023-03-01T16:10:03;96721.56;;;7.96
71640;BMP280;60912;48.968;10.124;2023-03-01T16:12:32;96731.59;;;7.88
71640;BMP280;60912;48.968;10.124;2023-03-01T16:15:33;96724.00;;;7.81
71640;BMP280;60912;48.968;10.124;2023-03-01T16:18:03;96718.72;;;7.83
71640;BMP280;60912;48.968;10.124;2023-03-01T16:20:42;96721.59;;;7.90
71640;BMP280;60912;48.968;10.124;2023-03-01T16:23:29;96726.06;;;7.93
71640;BMP280;60912;48.968;10.124;2023-03-01T16:26:19;96722.13;;;7.89
71640;BMP280;60912;48.968;10.124;2023-03-01T16:31:49;96722.28;;;7.78
71640;BMP280;60912;48.968;10.124;2023-03-01T16:37:46;96710.56;;;7.58
71640;BMP280;60912;48.968;10.124;2023-03-01T16:40:33;96712.75;;;7.60
71640;BMP280;60912;48.968;10.124;2023-03-01T16:43:22;96715.06;;;7.56
71640;BMP280;60912;48.968;10.124;2023-03-01T16:49:06;96719.28;;;7.38
71640;BMP280;60912;48.968;10.124;2023-03-01T16:54:37;96713.75;;;7.19
71640;BMP280;60912;48.968;10.124;2023-03-01T16:57:05;96717.75;;;7.18
71640;BMP280;60912;48.968;10.124;2023-03-01T16:59:33;96711.34;;;7.10
71640;BMP280;60912;48.968;10.124;2023-03-01T17:02:48;96731.34;;;7.05
71640;BMP280;60912;48.968;10.124;2023-03-01T17:08:50;96748.53;;;7.06
71640;BMP280;60912;48.968;10.124;2023-03-01T17:11:36;96742.09;;;6.98
71640;BMP280;60912;48.968;10.124;2023-03-01T17:14:38;96751.03;;;7.04
71640;BMP280;60912;48.968;10.124;2023-03-01T17:20:43;96765.59;;;6.87
71640;BMP280;60912;48.968;10.124;2023-03-01T17:26:50;96767.94;;;6.78
71640;BMP280;60912;48.968;10.124;2023-03-01T17:29:31;96768.94;;;6.75
71640;BMP280;60912;48.968;10.124;2023-03-01T17:32:18;96786.09;;;6.81
71640;BMP280;60912;48.968;10.124;2023-03-01T17:35:16;96793.09;;;6.76
71640;BMP280;60912;48.968;10.124;2023-03-01T17:37:56;96791.94;;;6.66
71640;BMP280;60912;48.968;10.124;2023-03-01T17:52:06;96804.34;;;6.32
71640;BMP280;60912;48.968;10.124;2023-03-01T17:57:23;96791.00;;;6.12
71640;BMP280;60912;48.968;10.124;2023-03-01T17:59:52;96799.25;;;6.06
71640;BMP280;60912;48.968;10.124;2023-03-01T18:02:25;96807.19;;;6.10
71640;BMP280;60912;48.968;10.124;2023-03-01T18:05:33;96797.28;;;6.01
71640;BMP280;60912;48.968;10.124;2023-03-01T18:08:28;96813.47;;;5.93
71640;BMP280;60912;48.968;10.124;2023-03-01T18:11:12;96803.59;;;5.79
71640;BMP280;60912;48.968;10.124;2023-03-01T18:13:44;96805.56;;;5.79
71640;BMP280;60912;48.968;10.124;2023-03-01T18:16:33;96809.31;;;5.81
71640;BMP280;60912;48.968;10.124;2023-03-01T18:19:32;96798.09;;;5.85
71640;BMP280;60912;48.968;10.124;2023-03-01T18:22:20;96801.56;;;5.85
71640;BMP280;60912;48.968;10.124;2023-03-01T18:28:01;96810.34;;;5.67
71640;BMP280;60912;48.968;10.124;2023-03-01T18:30:32;96803.88;;;5.59
71640;BMP280;60912;48.968;10.124;2023-03-01T18:32:58;96804.66;;;5.54
71640;BMP280;60912;48.968;10.124;2023-03-01T18:38:22;96792.22;;;5.53
71640;BMP280;60912;48.968;10.124;2023-03-01T18:41:23;96802.16;;;5.56
71640;BMP280;60912;48.968;10.124;2023-03-01T18:44:16;96799.69;;;5.36
71640;BMP280;60912;48.968;10.124;2023-03-01T18:47:11;96792.25;;;5.36
71640;BMP280;60912;48.968;10.124;2023-03-01T18:49:54;96795.97;;;5.33
71640;BMP280;60912;48.968;10.124;2023-03-01T18:52:20;96794.22;;;5.36
71640;BMP280;60912;48.968;10.124;2023-03-01T18:54:58;96787.78;;;5.27
71640;BMP280;60912;48.968;10.124;2023-03-01T19:03:06;96783.34;;;5.13
71640;BMP280;60912;48.968;10.124;2023-03-01T19:05:56;96796.25;;;5.07
71640;BMP280;60912;48.968;10.124;2023-03-01T19:23:39;96793.53;;;4.91
71640;BMP280;60912;48.968;10.124;2023-03-01T19:32:34;96788.31;;;4.87
71640;BMP280;60912;48.968;10.124;2023-03-01T19:35:25;96785.06;;;4.77
71640;BMP280;60912;48.968;10.124;2023-03-01T19:38:09;96785.34;;;4.85
71640;BMP280;60912;48.968;10.124;2023-03-01T19:44:16;96783.59;;;4.71
71640;BMP280;60912;48.968;10.124;2023-03-01T19:47:09;96786.06;;;4.69
71640;BMP280;60912;48.968;10.124;2023-03-01T19:53:31;96780.84;;;4.60
71640;BMP280;60912;48.968;10.124;2023-03-01T19:56:07;96766.19;;;4.63
71640;BMP280;60912;48.968;10.124;2023-03-01T19:58:39;96778.63;;;4.69
71640;BMP280;60912;48.968;10.124;2023-03-01T20:04:02;96776.63;;;4.75
71640;BMP280;60912;48.968;10.124;2023-03-01T20:06:43;96764.72;;;4.73
71640;BMP280;60912;48.968;10.124;2023-03-01T20:09:17;96764.00;;;4.67
71640;BMP280;60912;48.968;10.124;2023-03-01T20:11:55;96770.41;;;4.47
71640;BMP280;60912;48.968;10.124;2023-03-01T20:14:41;96770.44;;;4.53
71640;BMP280;60912;48.968;10.124;2023-03-01T20:17:27;96771.94;;;4.54
71640;BMP280;60912;48.968;10.124;2023-03-01T20:19:55;96765.91;;;4.44
71640;BMP280;60912;48.968;10.124;2023-03-01T20:22:43;96767.22;;;4.54
71640;BMP280;60912;48.968;10.124;2023-03-01T20:25:12;96768.19;;;4.51
71640;BMP280;60912;48.968;10.124;2023-03-01T20:27:47;96773.63;;;4.45
71640;BMP280;60912;48.968;10.124;2023-03-01T20:30:24;96758.00;;;4.40
71640;BMP280;60912;48.968;10.124;2023-03-01T20:32:50;96770.13;;;4.45
71640;BMP280;60912;48.968;10.124;2023-03-01T20:35:25;96759.47;;;4.47
71640;BMP280;60912;48.968;10.124;2023-03-01T20:38:20;96759.97;;;4.45
71640;BMP280;60912;48.968;10.124;2023-03-01T20:41:10;96765.94;;;4.49
71640;BMP280;60912;48.968;10.124;2023-03-01T20:43:42;96764.94;;;4.41
71640;BMP280;60912;48.968;10.124;2023-03-01T20:46:17;96767.41;;;4.39
71640;BMP280;60912;48.968;10.124;2023-03-01T20:48:42;96767.91;;;4.43
71640;BMP280;60912;48.968;10.124;2023-03-01T20:51:08;96761.94;;;4.39
71640;BMP280;60912;48.968;10.124;2023-03-01T20:53:37;96762.44;;;4.32
71640;BMP280;60912;48.968;10.124;2023-03-01T20:56:10;96772.88;;;4.39
71640;BMP280;60912;48.968;10.124;2023-03-01T20:58:41;96774.34;;;4.35
71640;BMP280;60912;48.968;10.124;2023-03-01T21:01:27;96765.41;;;4.34
71640;BMP280;60912;48.968;10.124;2023-03-01T21:03:56;96756.50;;;4.28
71640;BMP280;60912;48.968;10.124;2023-03-01T21:06:24;96759.44;;;4.25
71640;BMP280;60912;48.968;10.124;2023-03-01T21:08:50;96764.41;;;4.15
71640;BMP280;60912;48.968;10.124;2023-03-01T21:11:16;96761.41;;;4.13
71640;BMP280;60912;48.968;10.124;2023-03-01T21:14:19;96760.41;;;4.16
71640;BMP280;60912;48.968;10.124;2023-03-01T21:16:49;96756.44;;;4.12
71640;BMP280;60912;48.968;10.124;2023-03-01T21:19:41;96760.13;;;4.08
71640;BMP280;60912;48.968;10.124;2023-03-01T21:22:33;96758.16;;;4.03
71640;BMP280;60912;48.968;10.124;2023-03-01T21:24:59;96763.34;;;4.07
71640;BMP280;60912;48.968;10.124;2023-03-01T21:27:43;96751.72;;;4.12
71640;BMP280;60912;48.968;10.124;2023-03-01T21:30:45;96754.94;;;4.05
71640;BMP280;60912;48.968;10.124;2023-03-01T21:36:13;96755.88;;;3.96
71640;BMP280;60912;48.968;10.124;2023-03-01T21:38:50;96741.19;;;3.77
71640;BMP280;60912;48.968;10.124;2023-03-01T21:41:42;96745.66;;;3.80
71640;BMP280;60912;48.968;10.124;2023-03-01T21:44:10;96752.31;;;3.73
71640;BMP280;60912;48.968;10.124;2023-03-01T21:46:55;96743.63;;;3.64
71640;BMP280;60912;48.968;10.124;2023-03-01T21:49:25;96742.34;;;3.59
71640;BMP280;60912;48.968;10.124;2023-03-01T21:51:54;96739.81;;;3.50
71640;BMP280;60912;48.968;10.124;2023-03-01T21:54:31;96734.91;;;3.54
71640;BMP280;60912;48.968;10.124;2023-03-01T21:57:04;96736.88;;;3.54
71640;BMP280;60912;48.968;10.124;2023-03-01T21:59:33;96731.91;;;3.52
71640;BMP280;60912;48.968;10.124;2023-03-01T22:01:58;96734.16;;;3.54
71640;BMP280;60912;48.968;10.124;2023-03-01T22:04:53;96730.66;;;3.48
71640;BMP280;60912;48.968;10.124;2023-03-01T22:07:28;96738.88;;;3.59